createdAt,value
2023-04-15T00:02:14.842Z,3.22
2023-04-15T00:04:41.533Z,2.42
2023-04-15T00:07:08.692Z,4.35
2023-04-15T00:09:35.334Z,2.80
2023-04-15T00:12:02.111Z,2.08
2023-04-15T00:14:28.815Z,4.53
2023-04-15T00:16:57.366Z,2.40
2023-04-15T00:19:24.773Z,3.28
2023-04-15T00:21:51.518Z,3.08
2023-04-15T00:24:18.200Z,2.50
2023-04-15T00:26:44.828Z,2.78
2023-04-15T00:29:11.450Z,3.35
2023-04-15T00:31:38.378Z,5.60
2023-04-15T00:34:05.003Z,5.07
2023-04-15T00:36:32.106Z,6.60
2023-04-15T00:38:59.182Z,9.27
2023-04-15T00:41:26.017Z,7.40
2023-04-15T00:43:52.858Z,4.97
2023-04-15T00:46:21.376Z,3.10
2023-04-15T00:48:48.216Z,4.07
2023-04-15T01:11:01.570Z,7.00
2023-04-15T01:13:28.745Z,6.80
2023-04-15T01:15:57.805Z,5.30
2023-04-15T01:18:24.661Z,7.63
2023-04-15T01:20:51.721Z,6.28
2023-04-15T01:23:18.689Z,6.97
2023-04-15T01:25:46.693Z,6.15
2023-04-15T01:28:13.381Z,6.30
2023-04-15T01:30:40.047Z,5.93
2023-04-15T01:33:06.776Z,8.05
2023-04-15T01:35:33.673Z,7.72
2023-04-15T01:38:06.258Z,6.70
2023-04-15T01:40:33.804Z,7.15
2023-04-15T01:43:01.277Z,9.52
2023-04-15T01:45:28.851Z,7.65
2023-04-15T01:47:55.865Z,7.80
2023-04-15T01:50:22.553Z,13.73
2023-04-15T01:52:49.157Z,13.25
2023-04-15T01:55:16.131Z,9.98
2023-04-15T01:57:42.797Z,10.48
2023-04-15T02:00:09.857Z,9.75
2023-04-15T02:02:36.710Z,9.50
2023-04-15T02:05:05.639Z,13.48
2023-04-15T02:07:32.477Z,12.32
2023-04-15T02:09:59.246Z,14.75
2023-04-15T02:12:25.999Z,12.80
2023-04-15T02:14:52.665Z,11.65
2023-04-15T02:17:19.351Z,12.65
2023-04-15T02:19:45.980Z,16.63
2023-04-15T02:22:18.457Z,12.40
2023-04-15T02:24:46.659Z,11.18
2023-04-15T02:27:18.052Z,11.55
2023-04-15T02:29:48.440Z,9.98
2023-04-15T02:32:15.099Z,11.45
2023-04-15T02:34:42.913Z,9.25
2023-04-15T02:37:12.123Z,7.53
2023-04-15T02:39:39.042Z,8.07
2023-04-15T02:42:06.175Z,8.63
2023-04-15T02:44:34.121Z,13.30
2023-04-15T02:47:00.773Z,8.65
2023-04-15T02:49:29.828Z,7.43
2023-04-15T02:51:58.178Z,8.55
2023-04-15T02:54:25.044Z,8.68
2023-04-15T02:56:55.299Z,10.93
2023-04-15T02:59:22.047Z,6.55
2023-04-15T03:01:48.772Z,6.43
2023-04-15T03:04:15.691Z,12.85
2023-04-15T03:06:42.594Z,11.15
2023-04-15T03:09:09.472Z,8.25
2023-04-15T03:11:40.655Z,8.88
2023-04-15T03:14:07.315Z,6.00
2023-04-15T03:16:33.946Z,8.18
2023-04-15T03:19:00.962Z,6.80
2023-04-15T03:21:27.903Z,11.25
2023-04-15T03:23:54.476Z,8.23
2023-04-15T03:26:31.737Z,9.27
2023-04-15T03:28:58.569Z,8.85
2023-04-15T03:31:25.541Z,17.85
2023-04-15T03:33:52.111Z,12.73
2023-04-15T03:36:18.854Z,18.30
2023-04-15T03:38:45.826Z,13.88
2023-04-15T03:41:13.193Z,27.05
2023-04-15T03:43:39.788Z,17.70
2023-04-15T03:46:06.876Z,17.13
2023-04-15T03:48:33.548Z,19.88
2023-04-15T03:51:00.157Z,21.85
2023-04-15T03:53:26.776Z,23.88
2023-04-15T03:55:53.472Z,24.58
2023-04-15T03:58:20.049Z,16.30
2023-04-15T04:00:46.715Z,19.63
2023-04-15T04:03:13.796Z,19.15
2023-04-15T04:05:41.612Z,16.55
2023-04-15T04:08:08.363Z,15.00
2023-04-15T04:10:35.214Z,19.60
2023-04-15T04:13:02.100Z,10.95
2023-04-15T04:15:28.697Z,9.77
2023-04-15T04:17:55.581Z,23.85
2023-04-15T04:20:22.204Z,11.65
2023-04-15T04:22:48.843Z,11.98
2023-04-15T04:25:15.467Z,20.30
2023-04-15T04:27:42.276Z,29.92
2023-04-15T04:30:09.138Z,21.50
2023-04-15T04:32:35.854Z,14.80
2023-04-15T04:35:03.734Z,15.90
2023-04-15T04:37:30.456Z,20.42
2023-04-15T04:39:57.061Z,21.50
2023-04-15T04:42:23.729Z,19.90
2023-04-15T04:44:50.394Z,31.42
2023-04-15T04:47:17.168Z,18.58
2023-04-15T04:49:43.806Z,13.88
2023-04-15T04:52:10.470Z,17.17
2023-04-15T04:54:37.349Z,18.10
2023-04-15T04:57:03.907Z,15.80
2023-04-15T04:59:30.826Z,10.48
2023-04-15T05:01:57.563Z,14.20
2023-04-15T05:04:24.266Z,21.55
2023-04-15T05:06:51.012Z,15.35
2023-04-15T05:09:17.974Z,16.20
2023-04-15T05:11:44.594Z,13.25
2023-04-15T05:14:11.209Z,13.55
2023-04-15T05:16:38.027Z,12.02
2023-04-15T05:19:04.647Z,14.77
2023-04-15T05:21:31.850Z,37.10
2023-04-15T05:23:58.465Z,23.55
2023-04-15T05:26:25.171Z,16.40
2023-04-15T05:28:51.802Z,11.65
2023-04-15T05:31:18.562Z,11.05
2023-04-15T05:33:45.301Z,22.60
2023-04-15T05:36:12.224Z,12.52
2023-04-15T05:38:38.919Z,14.35
2023-04-15T05:41:05.836Z,12.90
2023-04-15T05:43:32.593Z,12.18
2023-04-15T05:45:59.275Z,12.70
2023-04-15T05:48:25.973Z,14.85
2023-04-15T05:50:52.724Z,13.32
2023-04-15T05:53:19.463Z,11.90
2023-04-15T05:55:46.189Z,10.00
2023-04-15T05:58:13.081Z,10.75
2023-04-15T06:00:40.485Z,10.60
2023-04-15T06:03:07.917Z,17.70
2023-04-15T06:05:34.753Z,12.73
2023-04-15T06:08:01.631Z,10.65
2023-04-15T06:10:28.370Z,14.75
2023-04-15T06:12:55.082Z,12.60
2023-04-15T06:15:21.766Z,17.63
2023-04-15T06:17:48.443Z,11.65
2023-04-15T06:20:15.244Z,13.05
2023-04-15T06:22:42.021Z,19.30
2023-04-15T06:25:09.416Z,13.52
2023-04-15T06:27:36.087Z,14.02
2023-04-15T06:30:02.849Z,13.13
2023-04-15T06:32:30.146Z,11.70
2023-04-15T06:34:56.823Z,18.55
2023-04-15T06:37:23.497Z,12.90
2023-04-15T06:39:50.089Z,12.70
2023-04-15T06:42:16.808Z,18.35
2023-04-15T06:44:43.701Z,13.65
2023-04-15T06:47:10.320Z,15.70
2023-04-15T06:49:37.142Z,11.35
2023-04-15T06:52:05.047Z,10.32
2023-04-15T06:54:32.181Z,14.18
2023-04-15T06:56:58.827Z,11.13
2023-04-15T06:59:25.487Z,9.80
2023-04-15T07:01:52.239Z,11.60
2023-04-15T07:04:18.963Z,10.73
2023-04-15T07:06:46.176Z,15.80
2023-04-15T07:09:12.898Z,14.52
2023-04-15T07:11:39.513Z,9.45
2023-04-15T07:14:06.781Z,16.42
2023-04-15T07:16:33.522Z,19.45
2023-04-15T07:19:00.372Z,17.08
2023-04-15T07:21:27.755Z,16.40
2023-04-15T07:23:54.447Z,20.73
2023-04-15T10:52:17.058Z,4.45
2023-04-15T11:00:14.873Z,3.40
2023-04-15T11:02:55.135Z,3.30
2023-04-15T12:06:14.144Z,6.35
2023-04-15T12:08:56.311Z,4.88
2023-04-15T12:11:33.349Z,1.10
2023-04-15T12:14:13.789Z,6.77
2023-04-15T12:42:25.554Z,10.02
2023-04-15T12:44:52.279Z,12.18
2023-04-15T12:47:29.222Z,3.38
2023-04-15T12:49:55.984Z,8.82
2023-04-15T12:52:24.719Z,2.35
2023-04-15T12:55:27.879Z,5.00
2023-04-15T12:57:55.049Z,3.72
2023-04-15T13:02:49.231Z,8.40
2023-04-15T13:05:16.199Z,0.73
2023-04-15T13:17:41.263Z,2.45
2023-04-15T13:20:09.023Z,14.85
2023-04-15T13:22:35.628Z,0.98
2023-04-15T13:25:02.184Z,1.92
2023-04-15T13:27:28.892Z,1.80
2023-04-15T13:29:55.755Z,1.80
2023-04-15T13:32:22.457Z,6.05
2023-04-15T13:34:49.057Z,3.13
2023-04-15T13:37:15.824Z,3.83
2023-04-15T13:39:42.557Z,6.22
2023-04-15T13:42:09.315Z,4.28
2023-04-15T13:44:36.024Z,3.92
2023-04-15T13:47:02.604Z,2.30
2023-04-15T13:49:29.632Z,1.58
2023-04-15T13:51:58.858Z,2.88
2023-04-15T13:54:25.550Z,3.42
2023-04-15T13:57:05.700Z,2.70
2023-04-15T13:59:34.998Z,3.53
2023-04-15T14:02:02.067Z,9.45
2023-04-15T14:04:28.858Z,1.52
2023-04-15T14:06:56.431Z,3.15
2023-04-15T14:09:26.150Z,3.83
2023-04-15T14:19:13.120Z,3.65
2023-04-15T14:21:39.776Z,6.88
2023-04-15T14:24:08.262Z,6.60
2023-04-15T14:26:34.886Z,6.22
2023-04-15T14:29:01.574Z,3.00
2023-04-15T14:31:28.398Z,3.20
2023-04-15T14:33:57.956Z,2.60
2023-04-15T14:36:27.640Z,11.65
2023-04-15T14:38:57.065Z,9.32
2023-04-15T14:41:24.035Z,7.30
2023-04-15T14:43:50.764Z,9.55
2023-04-15T14:46:17.505Z,4.45
2023-04-15T14:48:44.280Z,2.50
2023-04-15T14:51:11.118Z,5.78
2023-04-15T14:53:37.828Z,5.53
2023-04-15T14:56:04.678Z,7.13
2023-04-15T14:58:32.822Z,3.35
2023-04-15T15:01:00.117Z,5.15
2023-04-15T15:03:27.120Z,2.17
2023-04-15T15:05:54.296Z,15.30
2023-04-15T15:08:21.115Z,5.20
2023-04-15T15:10:49.759Z,2.72
2023-04-15T15:13:17.827Z,2.78
2023-04-15T15:15:44.679Z,2.25
2023-04-15T15:18:11.587Z,5.18
2023-04-15T15:20:38.571Z,3.53
2023-04-15T15:23:05.270Z,3.83
2023-04-15T15:25:31.951Z,4.70
2023-04-15T15:27:58.680Z,3.70
2023-04-15T15:30:25.550Z,4.03
2023-04-15T15:32:52.326Z,4.35
2023-04-15T15:35:23.143Z,5.80
2023-04-15T15:37:49.807Z,4.03
2023-04-15T15:40:16.452Z,2.25
2023-04-15T15:42:43.137Z,2.92
2023-04-15T15:45:10.217Z,2.53
2023-04-15T15:47:37.040Z,2.30
2023-04-15T15:50:06.017Z,4.15
2023-04-15T15:52:33.042Z,3.70
2023-04-15T15:54:59.825Z,2.70
2023-04-15T15:57:26.529Z,3.10
2023-04-15T16:00:04.772Z,2.85
2023-04-15T16:03:04.254Z,4.40
2023-04-15T16:05:24.714Z,4.20
2023-04-15T16:07:51.516Z,7.35
2023-04-15T16:10:18.128Z,5.38
2023-04-15T16:12:44.814Z,3.58
2023-04-15T16:15:12.561Z,10.15
2023-04-15T16:17:39.268Z,11.35
2023-04-15T16:20:07.081Z,10.65
2023-04-15T16:22:35.022Z,5.63
2023-04-15T16:25:01.809Z,12.63
2023-04-15T16:27:28.764Z,71.80
2023-04-15T16:29:55.341Z,3.80
2023-04-15T16:32:22.057Z,20.90
2023-04-15T16:34:48.776Z,10.63
2023-04-15T16:37:15.533Z,5.20
2023-04-15T16:39:42.236Z,10.68
2023-04-15T16:42:09.712Z,10.73
2023-04-15T16:44:36.326Z,4.93
2023-04-15T16:47:03.251Z,9.13
2023-04-15T16:49:30.399Z,8.68
2023-04-15T16:51:57.708Z,11.13
2023-04-15T16:54:24.367Z,14.05
2023-04-15T16:56:51.184Z,8.25
2023-04-15T16:59:17.802Z,3.55
2023-04-15T17:01:45.436Z,7.03
2023-04-15T17:04:12.083Z,3.03
2023-04-15T17:06:39.102Z,5.47
2023-04-15T17:09:06.001Z,6.15
2023-04-15T17:11:32.994Z,4.47
2023-04-15T17:13:59.673Z,4.70
2023-04-15T17:16:26.621Z,3.38
2023-04-15T17:18:53.303Z,5.13
2023-04-15T17:21:19.905Z,6.90
2023-04-15T17:23:46.801Z,7.68
2023-04-15T17:26:13.469Z,5.78
2023-04-15T17:28:40.074Z,12.88
2023-04-15T17:31:07.247Z,5.47
2023-04-15T17:34:02.053Z,15.98
2023-04-15T17:36:20.582Z,6.55
2023-04-15T17:38:47.251Z,9.45
2023-04-15T17:41:14.108Z,5.55
2023-04-15T17:43:40.729Z,4.65
2023-04-15T17:46:07.918Z,7.38
2023-04-15T17:48:34.706Z,9.85
2023-04-15T17:51:01.353Z,7.97
2023-04-15T17:53:27.953Z,10.93
2023-04-15T17:55:54.876Z,9.13
2023-04-15T17:58:21.652Z,11.67
2023-04-15T18:00:48.345Z,14.43
2023-04-15T18:03:15.472Z,15.30
2023-04-15T18:05:42.730Z,12.57
2023-04-15T18:08:09.894Z,11.57
2023-04-15T18:10:39.211Z,8.13
2023-04-15T18:13:06.490Z,13.90
2023-04-15T18:15:33.475Z,12.45
2023-04-15T18:18:00.544Z,22.52
2023-04-15T18:20:27.921Z,13.02
2023-04-15T18:22:54.739Z,12.70
2023-04-15T18:25:21.505Z,31.02
2023-04-15T18:27:48.237Z,14.70
2023-04-15T18:30:15.125Z,13.65
2023-04-15T18:32:41.925Z,17.80
2023-04-15T18:35:11.753Z,9.95
2023-04-15T18:37:38.654Z,9.20
2023-04-15T18:40:07.246Z,9.05
2023-04-15T18:42:34.050Z,12.32
2023-04-15T18:45:00.956Z,6.50
2023-04-15T18:47:28.009Z,7.60
2023-04-15T18:49:54.699Z,18.05
2023-04-15T18:52:21.547Z,9.30
2023-04-15T18:54:51.378Z,10.18
2023-04-15T18:57:28.472Z,11.55
2023-04-15T19:00:01.545Z,10.52
2023-04-15T19:02:28.394Z,10.45
2023-04-15T19:04:55.556Z,9.70
2023-04-15T19:07:23.454Z,7.53
2023-04-15T19:09:50.241Z,14.55
2023-04-15T19:12:16.831Z,10.15
2023-04-15T19:14:43.457Z,19.00
2023-04-15T19:17:10.288Z,26.98
2023-04-15T19:19:37.087Z,27.00
2023-04-15T19:22:03.695Z,21.17
2023-04-15T19:24:33.883Z,28.63
2023-04-15T19:27:01.765Z,20.73
2023-04-15T19:29:31.481Z,16.67
2023-04-15T19:31:58.252Z,19.30
2023-04-15T19:34:25.195Z,22.30
2023-04-15T19:36:51.974Z,24.95
2023-04-15T19:39:19.743Z,17.15
2023-04-15T19:41:47.341Z,17.27
2023-04-15T19:44:14.256Z,14.43
2023-04-15T19:46:43.614Z,8.75
2023-04-15T19:49:10.954Z,9.45
2023-04-15T19:51:37.582Z,14.88
2023-04-15T19:54:04.238Z,26.33
2023-04-15T19:56:33.606Z,20.67
2023-04-15T19:59:02.149Z,13.13
2023-04-15T20:01:28.963Z,46.25
2023-04-15T20:03:56.077Z,19.30
2023-04-15T20:06:22.942Z,27.63
2023-04-15T20:08:49.795Z,21.20
2023-04-15T20:11:17.177Z,13.40
2023-04-15T20:13:43.896Z,13.57
2023-04-15T20:16:11.849Z,20.27
2023-04-15T20:18:38.485Z,15.13
2023-04-15T20:21:05.117Z,13.48
2023-04-15T20:23:31.858Z,31.40
2023-04-15T20:25:58.512Z,24.33
2023-04-15T20:28:27.535Z,21.65
2023-04-15T20:30:54.162Z,15.02
2023-04-15T20:33:22.361Z,21.80
2023-04-15T20:35:49.008Z,20.95
2023-04-15T20:38:16.393Z,21.23
2023-04-15T20:40:43.450Z,23.17
2023-04-15T20:43:10.286Z,25.02
2023-04-15T20:45:37.273Z,51.22
2023-04-15T20:48:04.221Z,20.58
2023-04-15T20:50:31.253Z,29.63
2023-04-15T20:52:57.873Z,15.57
2023-04-15T20:55:24.512Z,30.10
2023-04-15T20:57:51.382Z,33.33
2023-04-15T21:00:18.071Z,27.60
2023-04-15T21:02:44.780Z,44.10
2023-04-15T21:05:11.523Z,31.48
2023-04-15T21:07:38.156Z,39.05
2023-04-15T21:10:05.054Z,46.33
2023-04-15T21:12:31.688Z,42.58
2023-04-15T21:14:58.342Z,43.38
2023-04-15T21:17:25.162Z,41.55
2023-04-15T21:19:51.825Z,28.52
2023-04-15T21:22:18.409Z,37.10
2023-04-15T21:24:44.959Z,35.15
2023-04-15T21:27:11.566Z,47.05
2023-04-15T21:29:40.387Z,34.92
2023-04-15T21:32:07.129Z,33.58
2023-04-15T21:34:33.936Z,26.13
2023-04-15T21:37:00.650Z,30.05
2023-04-15T21:39:27.287Z,28.58
2023-04-15T21:41:54.036Z,32.70
2023-04-15T21:44:20.675Z,32.10
2023-04-15T21:46:47.318Z,31.13
2023-04-15T21:49:14.160Z,29.67
2023-04-15T21:51:40.960Z,30.60
2023-04-15T21:54:07.702Z,37.28
2023-04-15T21:56:34.331Z,28.90
2023-04-15T21:59:01.217Z,25.60
2023-04-15T22:01:27.910Z,28.60
2023-04-15T22:03:54.822Z,26.25
2023-04-15T22:06:22.032Z,28.85
2023-04-15T22:09:11.358Z,30.45
2023-04-15T22:11:38.024Z,28.58
2023-04-15T22:14:05.803Z,44.53
2023-04-15T22:16:32.454Z,34.80
2023-04-15T22:18:59.097Z,36.65
2023-04-15T22:21:26.685Z,30.50
2023-04-15T22:23:53.414Z,32.97
2023-04-15T22:26:39.909Z,35.28
2023-04-15T22:29:06.953Z,32.35
2023-04-15T22:31:33.725Z,25.67
2023-04-15T22:34:00.284Z,29.23
2023-04-15T22:36:27.432Z,26.05
2023-04-15T22:38:54.175Z,25.67
2023-04-15T22:41:20.997Z,23.02
2023-04-15T22:43:47.642Z,19.85
2023-04-15T22:46:14.617Z,21.45
2023-04-15T22:48:42.532Z,20.83
2023-04-15T22:51:09.250Z,20.27
2023-04-15T22:53:35.950Z,18.90
2023-04-15T22:56:02.714Z,24.73
2023-04-15T22:58:32.124Z,23.00
2023-04-15T23:00:59.214Z,21.80
2023-04-15T23:03:26.011Z,19.63
2023-04-15T23:05:52.800Z,21.15
2023-04-15T23:08:19.374Z,23.30
2023-04-15T23:10:46.520Z,26.17
2023-04-15T23:13:13.212Z,23.92
2023-04-15T23:15:39.878Z,21.73
2023-04-15T23:18:06.611Z,26.27
2023-04-15T23:20:33.990Z,26.90
2023-04-15T23:23:00.707Z,22.55
2023-04-15T23:25:27.364Z,50.63
2023-04-15T23:27:53.970Z,24.80
2023-04-15T23:30:20.588Z,20.30
2023-04-15T23:32:47.255Z,28.48
2023-04-15T23:35:13.869Z,24.60
2023-04-15T23:37:40.655Z,18.60
2023-04-15T23:40:07.907Z,20.45
2023-04-15T23:42:34.551Z,20.52
2023-04-15T23:45:01.253Z,26.02
2023-04-15T23:47:27.875Z,23.15
2023-04-15T23:49:54.468Z,21.67
2023-04-15T23:52:21.180Z,23.00
2023-04-15T23:54:47.805Z,25.52
2023-04-15T23:57:14.488Z,23.20
2023-04-15T23:59:41.098Z,22.17
